This is the latest recevied weather packets stored in our database for station/object Kirchdorf. If no packets are shown the sender has not sent any weather packets the latest 10 day(s).
| Time | Temp. | Humidity | Pressure | Rain* | Wind** | Luminosity | Snow |
|---|---|---|---|---|---|---|---|
| 1777622532 | 11.67° C | 46% | 1028 hPa | 0 mm | - | - | - |
| 1777620733 | 10° C | 48% | 1027.8 hPa | 0 mm | - | - | - |
| 1777618930 | 8.33° C | 52% | 1028 hPa | 0 mm | - | - | - |
| 1777617131 | 6.67° C | 56% | 1027.7 hPa | 0 mm | - | - | - |
| 1777615333 | 6.11° C | 59% | 1027.7 hPa | 0 mm | - | - | - |
| 1777613531 | 5° C | 61% | 1027.4 hPa | 0 mm | - | - | - |
| 1777611731 | 2.78° C | 77% | 1027.3 hPa | 0 mm | - | - | - |
| 1777609931 | 2.78° C | 65% | 1026.9 hPa | 0 mm | - | - | - |
| 1777608131 | 2.22° C | 69% | 1026.9 hPa | 0 mm | - | - | - |
| 1777606332 | 2.78° C | 70% | 1026.7 hPa | 0 mm | - | - | - |
| 1777604532 | 3.33° C | 63% | 1026.6 hPa | 0 mm | - | - | - |
| 1777602733 | 5° C | 57% | 1026.4 hPa | 0 mm | - | - | - |
| 1777600931 | 4.44° C | 58% | 1026.6 hPa | 0 mm | - | - | - |
| 1777599131 | 5° C | 55% | 1026.7 hPa | 0 mm | - | - | - |
| 1777597331 | 5.56° C | 51% | 1026.9 hPa | 0 mm | - | - | - |
| 1777595529 | 5.56° C | 54% | 1026.9 hPa | 0 mm | - | - | - |
| 1777593730 | 5.56° C | 53% | 1026.7 hPa | 0 mm | - | - | - |
| 1777591929 | 5.56° C | 54% | 1026.8 hPa | 0 mm | - | - | - |
| 1777590129 | 6.67° C | 50% | 1026.9 hPa | 0 mm | - | - | - |
| 1777588329 | 7.22° C | 47% | 1026.8 hPa | 0 mm | - | - | - |
| 1777584729 | 8.33° C | 43% | 1027.1 hPa | 0 mm | - | - | - |
| 1777582929 | 8.33° C | 43% | 1026.9 hPa | 0 mm | - | - | - |
| 1777581135 | 8.89° C | 44% | 1026.9 hPa | 0 mm | - | - | - |
| 1777579329 | 8.89° C | 44% | 1026.7 hPa | 0 mm | - | - | - |
| 1777577529 | 9.44° C | 42% | 1026.3 hPa | 0 mm | - | - | - |
* Rain since midnight (hover to see other rain measurements)
** Current wind speed in m/s (hover to see current wind gust speed)